createdAt,value
2019-04-12T00:03:56.317Z,5.60
2019-04-12T00:08:56.068Z,5.70
2019-04-12T00:13:55.623Z,5.60
2019-04-12T00:18:55.187Z,5.60
2019-04-12T00:23:54.769Z,5.60
2019-04-12T00:28:54.342Z,5.60
2019-04-12T00:33:53.939Z,5.60
2019-04-12T00:38:58.089Z,5.70
2019-04-12T00:43:55.957Z,5.50
2019-04-12T00:48:55.530Z,5.50
2019-04-12T00:53:55.099Z,5.60
2019-04-12T00:58:54.703Z,5.60
2019-04-12T01:03:59.080Z,5.40
2019-04-12T01:08:58.807Z,5.30
2019-04-12T01:13:58.372Z,5.30
2019-04-12T01:19:02.180Z,5.40
2019-04-12T01:23:59.363Z,5.30
2019-04-12T01:28:58.974Z,5.30
2019-04-12T01:33:58.643Z,5.30
2019-04-12T01:38:58.248Z,5.40
2019-04-12T01:43:57.893Z,5.50
2019-04-12T01:48:57.479Z,5.50
2019-04-12T01:53:57.134Z,5.40
2019-04-12T01:58:56.775Z,5.30
2019-04-12T02:03:56.363Z,5.20
2019-04-12T02:08:55.919Z,5.20
2019-04-12T02:13:55.545Z,5.20
2019-04-12T02:18:55.126Z,5.10
2019-04-12T02:23:54.717Z,5.10
2019-04-12T02:28:54.304Z,5.10
2019-04-12T02:33:54.372Z,5.20
2019-04-12T02:38:53.956Z,5.20
2019-04-12T02:43:55.302Z,5.20
2019-04-12T02:49:05.853Z,5.20
2019-04-12T02:54:37.146Z,5.20
2019-04-12T02:59:37.191Z,5.10
2019-04-12T03:04:37.068Z,5.00
2019-04-12T03:09:38.127Z,5.10
2019-04-12T03:14:38.981Z,5.10
2019-04-12T03:19:38.703Z,5.10
2019-04-12T03:24:38.369Z,5.10
2019-04-12T03:29:37.997Z,5.10
2019-04-12T03:34:38.884Z,5.20
2019-04-12T03:39:38.876Z,5.30
2019-04-12T03:44:38.460Z,5.30
2019-04-12T03:49:38.071Z,5.20
2019-04-12T03:54:37.708Z,5.10
2019-04-12T03:59:37.545Z,5.00
2019-04-12T04:04:37.341Z,5.10
2019-04-12T04:09:37.399Z,5.00
2019-04-12T04:14:40.691Z,5.00
2019-04-12T04:19:56.836Z,4.90
2019-04-12T04:24:59.847Z,4.90
2019-04-12T04:30:06.089Z,5.00
2019-04-12T04:35:06.404Z,5.00
2019-04-12T04:40:06.800Z,5.00
2019-04-12T04:45:06.727Z,4.90
2019-04-12T04:50:07.793Z,4.80
2019-04-12T04:55:07.819Z,4.80
2019-04-12T05:00:07.737Z,4.80
2019-04-12T05:05:08.989Z,5.00
2019-04-12T05:10:09.067Z,5.00
2019-04-12T05:15:09.202Z,5.00
2019-04-12T05:20:08.853Z,5.00
2019-04-12T05:25:10.956Z,5.00
2019-04-12T05:30:10.714Z,5.00
2019-04-12T05:35:13.674Z,5.00
2019-04-12T05:40:13.930Z,5.00
2019-04-12T05:45:15.583Z,4.90
2019-04-12T05:50:19.170Z,4.90
2019-04-12T05:55:19.129Z,4.80
2019-04-12T06:01:04.136Z,4.80
2019-04-12T06:06:03.825Z,4.80
2019-04-12T06:11:03.487Z,4.90
2019-04-12T06:16:03.155Z,4.90
2019-04-12T06:21:11.352Z,4.80
2019-04-12T06:26:33.661Z,4.90
2019-04-12T06:31:34.351Z,5.00
2019-04-12T06:36:34.896Z,5.00
2019-04-12T06:41:34.448Z,5.20
2019-04-12T06:46:34.158Z,5.10
2019-04-12T06:51:33.835Z,5.20
2019-04-12T06:56:50.251Z,5.20
2019-04-12T07:01:57.581Z,5.20
2019-04-12T07:07:01.374Z,5.20
2019-04-12T07:12:02.075Z,5.50
2019-04-12T07:17:01.676Z,5.50
2019-04-12T07:22:01.448Z,5.40
2019-04-12T07:27:01.051Z,5.40
2019-04-12T07:32:00.687Z,5.50
2019-04-12T07:37:00.244Z,5.60
2019-04-12T07:41:59.912Z,5.60
2019-04-12T07:46:59.529Z,5.30
2019-04-12T07:52:07.171Z,5.30
2019-04-12T07:57:28.731Z,5.30
2019-04-12T08:02:56.807Z,5.50
2019-04-12T08:08:00.473Z,5.60
2019-04-12T08:13:00.092Z,5.40
2019-04-12T08:17:59.659Z,5.40
2019-04-12T08:22:59.286Z,5.70
2019-04-12T08:27:59.156Z,5.80
2019-04-12T08:32:58.863Z,5.80
2019-04-12T08:38:04.691Z,5.90
2019-04-12T08:42:59.759Z,6.20
2019-04-12T08:47:59.351Z,6.40
2019-04-12T08:52:59.022Z,6.40
2019-04-12T08:58:09.991Z,6.40
2019-04-12T09:02:59.856Z,6.40
2019-04-12T09:07:59.425Z,6.30
2019-04-12T09:12:59.058Z,6.10
2019-04-12T09:17:58.720Z,6.00
2019-04-12T09:23:16.433Z,5.90
2019-04-12T09:28:24.417Z,5.80
2019-04-12T09:33:17.357Z,5.90
2019-04-12T09:38:28.591Z,5.90
2019-04-12T09:43:28.606Z,6.10
2019-04-12T09:48:28.163Z,6.20
2019-04-12T09:53:28.008Z,6.40
2019-04-12T09:58:37.227Z,6.40
2019-04-12T10:03:29.602Z,6.60
2019-04-12T10:08:29.191Z,6.60
2019-04-12T10:13:29.868Z,6.60
2019-04-12T10:18:33.443Z,6.80
2019-04-12T10:23:36.031Z,7.00
2019-04-12T10:28:35.975Z,7.00
2019-04-12T10:33:36.512Z,7.00
2019-04-12T10:38:43.602Z,7.00
2019-04-12T10:43:43.660Z,7.20
2019-04-12T10:49:01.080Z,7.30
2019-04-12T10:54:22.953Z,7.20
2019-04-12T10:59:25.692Z,7.20
2019-04-12T11:04:25.387Z,7.20
2019-04-12T11:09:25.010Z,7.10
2019-04-12T11:14:24.655Z,6.90
2019-04-12T11:19:24.295Z,6.90
2019-04-12T11:24:24.147Z,6.80
2019-04-12T11:29:23.765Z,7.00
2019-04-12T11:34:23.973Z,7.10
2019-04-12T11:39:24.272Z,7.10
2019-04-12T11:44:23.842Z,7.10
2019-04-12T11:49:23.378Z,7.10
2019-04-12T11:54:22.956Z,7.30
2019-04-12T11:59:29.349Z,7.50
2019-04-12T12:04:33.666Z,7.60
2019-04-12T12:09:51.019Z,7.70
2019-04-12T12:14:56.896Z,7.70
2019-04-12T12:19:56.458Z,7.30
2019-04-12T12:24:56.027Z,7.10
2019-04-12T12:29:55.594Z,7.10
2019-04-12T12:34:55.158Z,7.10
2019-04-12T12:39:54.757Z,6.80
2019-04-12T12:44:54.336Z,6.70
2019-04-12T12:49:53.907Z,6.80
2019-04-12T12:54:53.472Z,6.90
2019-04-12T12:59:54.810Z,6.90
2019-04-12T13:04:54.266Z,6.80
2019-04-12T13:09:53.827Z,6.70
2019-04-12T13:14:53.386Z,6.80
2019-04-12T13:19:52.942Z,6.70
2019-04-12T13:24:52.506Z,7.00
2019-04-12T13:29:53.379Z,7.20
2019-04-12T13:35:01.644Z,7.30
2019-04-12T13:40:08.808Z,7.00
2019-04-12T13:45:09.698Z,6.90
2019-04-12T13:50:10.716Z,6.90
2019-04-12T13:55:10.647Z,6.80
2019-04-12T14:00:19.024Z,6.80
2019-04-12T14:05:14.429Z,6.80
2019-04-12T14:10:18.046Z,6.80
2019-04-12T14:15:19.468Z,6.80
2019-04-12T14:20:32.342Z,6.80
2019-04-12T14:25:33.809Z,6.70
2019-04-12T14:30:41.527Z,6.60
2019-04-12T14:35:48.811Z,6.60
2019-04-12T14:40:48.465Z,6.60
2019-04-12T14:46:05.907Z,6.60
2019-04-12T14:51:05.664Z,6.60
2019-04-12T14:56:05.318Z,6.70
2019-04-12T15:01:09.906Z,6.70
2019-04-12T15:06:06.279Z,6.80
2019-04-12T15:11:05.971Z,7.00
2019-04-12T15:16:05.607Z,7.20
2019-04-12T15:21:05.257Z,7.10
2019-04-12T15:26:05.786Z,7.30
2019-04-12T15:31:05.459Z,7.40
2019-04-12T15:36:05.028Z,7.40
2019-04-12T15:41:05.311Z,7.20
2019-04-12T15:46:05.006Z,7.20
2019-04-12T15:51:04.775Z,7.10
2019-04-12T15:56:04.405Z,7.00
2019-04-12T16:01:11.940Z,6.90
2019-04-12T16:06:11.420Z,6.80
2019-04-12T16:11:13.609Z,6.50
2019-04-12T16:16:42.617Z,6.70
2019-04-12T16:21:42.245Z,6.60
2019-04-12T16:26:44.055Z,6.60
2019-04-12T16:32:06.795Z,6.70
2019-04-12T16:37:12.248Z,6.60
2019-04-12T16:42:11.827Z,6.50
2019-04-12T16:47:11.410Z,6.50
2019-04-12T16:52:11.046Z,6.50
2019-04-12T16:57:11.419Z,6.50
2019-04-12T17:02:11.031Z,6.40
2019-04-12T17:07:10.584Z,6.30
2019-04-12T17:12:10.157Z,6.40
2019-04-12T17:17:09.690Z,6.40
2019-04-12T17:22:09.260Z,6.40
2019-04-12T17:27:10.726Z,6.40
2019-04-12T17:32:10.537Z,6.30
2019-04-12T17:37:10.131Z,6.20
2019-04-12T17:42:09.699Z,6.30
2019-04-12T17:47:09.327Z,6.30
2019-04-12T17:52:12.421Z,6.20
2019-04-12T17:57:12.987Z,6.10
2019-04-12T18:02:28.553Z,6.10
2019-04-12T18:07:28.099Z,6.10
2019-04-12T18:12:27.776Z,6.00
2019-04-12T18:17:28.422Z,5.90
2019-04-12T18:22:28.100Z,5.90
2019-04-12T18:27:28.124Z,6.00
2019-04-12T18:32:27.878Z,6.00
2019-04-12T18:37:28.559Z,6.20
2019-04-12T18:42:28.124Z,6.10
2019-04-12T18:47:27.707Z,5.90
2019-04-12T18:52:27.373Z,5.80
2019-04-12T18:57:28.092Z,5.90
2019-04-12T19:02:27.861Z,5.90
2019-04-12T19:07:27.572Z,6.00
2019-04-12T19:12:27.135Z,6.00
2019-04-12T19:17:31.643Z,6.10
2019-04-12T19:22:31.235Z,6.10
2019-04-12T19:27:30.825Z,6.00
2019-04-12T19:32:42.988Z,6.00
2019-04-12T19:37:49.258Z,5.90
2019-04-12T19:42:49.007Z,6.00
2019-04-12T19:47:50.743Z,6.10
2019-04-12T19:52:50.451Z,6.00
2019-04-12T19:57:50.037Z,6.10
2019-04-12T20:02:51.761Z,6.00
2019-04-12T20:07:50.859Z,5.90
2019-04-12T20:12:50.428Z,5.90
2019-04-12T20:17:50.071Z,5.90
2019-04-12T20:22:49.720Z,5.90
2019-04-12T20:27:49.291Z,5.80
2019-04-12T20:33:03.405Z,5.80
2019-04-12T20:37:52.950Z,5.80
2019-04-12T20:42:52.542Z,5.80
2019-04-12T20:47:52.171Z,5.80
2019-04-12T20:52:51.851Z,5.80
2019-04-12T20:57:51.458Z,5.80
2019-04-12T21:02:51.027Z,5.80
2019-04-12T21:07:50.597Z,5.80
2019-04-12T21:12:50.218Z,5.90
2019-04-12T21:17:49.792Z,5.80
2019-04-12T21:22:49.365Z,5.80
2019-04-12T21:27:48.959Z,5.90
2019-04-12T21:32:48.513Z,6.00
2019-04-12T21:37:48.211Z,5.90
2019-04-12T21:42:47.754Z,5.80
2019-04-12T21:47:47.305Z,5.80
2019-04-12T21:52:47.935Z,5.90
2019-04-12T21:57:47.483Z,5.90
2019-04-12T22:02:47.298Z,5.80
2019-04-12T22:07:47.934Z,5.80
2019-04-12T22:12:47.501Z,5.80
2019-04-12T22:17:47.063Z,5.80
2019-04-12T22:22:46.628Z,5.70
2019-04-12T22:27:46.215Z,5.80
2019-04-12T22:32:45.840Z,5.80
2019-04-12T22:37:45.421Z,5.70
2019-04-12T22:42:44.965Z,5.70
2019-04-12T22:47:44.607Z,5.60
2019-04-12T22:52:44.167Z,5.70
2019-04-12T22:57:43.746Z,5.70
2019-04-12T23:02:43.298Z,5.70
2019-04-12T23:07:42.916Z,5.70
2019-04-12T23:12:42.470Z,5.70
2019-04-12T23:17:42.034Z,5.70
2019-04-12T23:22:41.591Z,5.80
2019-04-12T23:27:41.135Z,5.80
2019-04-12T23:32:40.707Z,5.80
2019-04-12T23:37:41.161Z,5.70
2019-04-12T23:42:40.730Z,5.60
2019-04-12T23:47:40.307Z,5.60
2019-04-12T23:52:39.871Z,5.60
2019-04-12T23:57:39.440Z,5.70
